createdAt,value
2023-03-29T00:00:08.238Z,98909.29
2023-03-29T00:02:35.057Z,98913.17
2023-03-29T00:05:04.042Z,98908.55
2023-03-29T00:07:33.792Z,98914.30
2023-03-29T00:10:02.165Z,98909.63
2023-03-29T00:12:29.101Z,98911.76
2023-03-29T00:14:56.502Z,98909.40
2023-03-29T00:17:23.645Z,98913.57
2023-03-29T00:19:50.548Z,98914.96
2023-03-29T00:22:17.290Z,98912.84
2023-03-29T00:24:44.119Z,98914.27
2023-03-29T00:27:11.008Z,98915.27
2023-03-29T00:29:38.148Z,98919.70
2023-03-29T00:32:05.125Z,98919.44
2023-03-29T00:34:31.906Z,98922.14
2023-03-29T00:36:59.640Z,98923.90
2023-03-29T00:39:28.130Z,98926.29
2023-03-29T00:41:55.357Z,98926.09
2023-03-29T00:44:50.512Z,98925.70
2023-03-29T00:47:21.653Z,98925.30
2023-03-29T00:49:50.483Z,98924.74
2023-03-29T00:52:18.419Z,98921.44
2023-03-29T00:54:46.486Z,98917.36
2023-03-29T00:57:14.930Z,98913.48
2023-03-29T00:59:43.515Z,98917.19
2023-03-29T01:02:11.498Z,98915.53
2023-03-29T01:04:47.977Z,98910.29
2023-03-29T01:07:35.409Z,98907.27
2023-03-29T01:10:14.750Z,98902.83
2023-03-29T01:12:50.213Z,98902.11
2023-03-29T01:15:21.657Z,98901.69
2023-03-29T01:17:51.822Z,98897.84
2023-03-29T01:20:27.477Z,98899.33
2023-03-29T01:23:27.009Z,98894.35
2023-03-29T01:25:57.278Z,98892.56
2023-03-29T01:28:34.458Z,98893.86
2023-03-29T01:31:08.936Z,98889.58
2023-03-29T01:33:51.172Z,98891.30
2023-03-29T01:36:21.802Z,98889.40
2023-03-29T01:38:54.673Z,98885.77
2023-03-29T01:41:22.241Z,98888.42
2023-03-29T01:44:05.924Z,98885.80
2023-03-29T01:46:40.949Z,98888.98
2023-03-29T01:49:24.938Z,98889.73
2023-03-29T01:52:00.398Z,98887.85
2023-03-29T01:54:43.575Z,98887.23
2023-03-29T01:57:12.433Z,98890.45
2023-03-29T01:59:42.583Z,98886.20
2023-03-29T02:02:14.917Z,98892.35
2023-03-29T02:04:51.827Z,98891.65
2023-03-29T02:07:25.577Z,98897.95
2023-03-29T02:09:54.592Z,98895.19
2023-03-29T02:12:21.550Z,98893.66
2023-03-29T02:14:48.316Z,98893.88
2023-03-29T02:17:19.777Z,98895.43
2023-03-29T02:19:50.385Z,98890.41
2023-03-29T02:22:24.092Z,98884.86
2023-03-29T02:24:57.088Z,98887.17
2023-03-29T02:27:23.791Z,98888.15
2023-03-29T02:29:50.617Z,98887.58
2023-03-29T02:32:49.031Z,98886.71
2023-03-29T02:35:29.097Z,98886.41
2023-03-29T02:37:57.760Z,98883.68
2023-03-29T02:40:26.242Z,98884.02
2023-03-29T02:42:55.734Z,98886.45
2023-03-29T02:45:24.296Z,98891.45
2023-03-29T02:47:56.925Z,98888.46
2023-03-29T02:50:27.971Z,98892.79
2023-03-29T02:53:04.718Z,98891.77
2023-03-29T02:55:35.350Z,98891.93
2023-03-29T02:58:08.237Z,98892.86
2023-03-29T03:00:42.429Z,98891.86
2023-03-29T03:03:10.388Z,98893.08
2023-03-29T03:05:38.404Z,98894.77
2023-03-29T03:08:07.903Z,98894.39
2023-03-29T03:10:35.778Z,98894.59
2023-03-29T03:13:03.084Z,98894.08
2023-03-29T03:15:31.254Z,98897.13
2023-03-29T03:17:57.999Z,98899.04
2023-03-29T03:20:24.732Z,98899.77
2023-03-29T03:22:51.491Z,98899.85
2023-03-29T03:25:21.320Z,98901.90
2023-03-29T03:27:48.645Z,98903.34
2023-03-29T03:30:16.293Z,98906.70
2023-03-29T03:32:46.338Z,98904.91
2023-03-29T03:35:13.375Z,98902.29
2023-03-29T03:37:41.064Z,98903.23
2023-03-29T03:40:09.405Z,98904.15
2023-03-29T03:42:36.103Z,98900.71
2023-03-29T03:45:02.958Z,98904.47
2023-03-29T03:47:30.832Z,98904.47
2023-03-29T03:49:57.649Z,98904.80
2023-03-29T03:52:24.437Z,98900.77
2023-03-29T03:54:51.884Z,98900.98
2023-03-29T03:57:18.870Z,98903.41
2023-03-29T03:59:45.684Z,98906.34
2023-03-29T04:02:12.560Z,98906.46
2023-03-29T04:04:40.682Z,98911.52
2023-03-29T04:07:08.329Z,98910.46
2023-03-29T04:09:35.487Z,98913.15
2023-03-29T04:12:02.174Z,98907.95
2023-03-29T04:14:29.563Z,98909.30
2023-03-29T04:16:56.543Z,98907.48
2023-03-29T04:19:23.282Z,98908.20
2023-03-29T04:21:51.397Z,98906.31
2023-03-29T04:24:18.110Z,98907.04
2023-03-29T04:26:45.146Z,98905.98
2023-03-29T04:29:11.993Z,98907.88
2023-03-29T04:31:38.866Z,98907.69
2023-03-29T04:34:05.592Z,98904.46
2023-03-29T04:36:32.429Z,98904.18
2023-03-29T04:39:01.709Z,98903.02
2023-03-29T04:41:29.002Z,98903.06
2023-03-29T04:43:56.716Z,98900.88
2023-03-29T04:46:26.865Z,98900.39
2023-03-29T04:48:54.300Z,98897.33
2023-03-29T04:51:22.463Z,98901.49
2023-03-29T04:53:50.468Z,98903.48
2023-03-29T04:56:17.809Z,98900.19
2023-03-29T04:58:44.710Z,98901.85
2023-03-29T05:01:11.855Z,98901.92
2023-03-29T05:03:38.799Z,98902.86
2023-03-29T05:06:07.788Z,98899.01
2023-03-29T05:08:39.251Z,98892.39
2023-03-29T05:11:09.191Z,98890.86
2023-03-29T05:13:37.034Z,98888.25
2023-03-29T05:16:05.208Z,98890.71
2023-03-29T05:18:32.080Z,98887.36
2023-03-29T05:21:00.195Z,98883.45
2023-03-29T05:23:27.762Z,98889.02
2023-03-29T05:25:54.893Z,98887.52
2023-03-29T05:28:21.814Z,98884.44
2023-03-29T05:31:00.501Z,98887.17
2023-03-29T05:33:28.017Z,98888.98
2023-03-29T05:36:08.227Z,98888.92
2023-03-29T05:38:36.163Z,98895.47
2023-03-29T05:41:03.588Z,98892.10
2023-03-29T05:43:31.032Z,98891.10
2023-03-29T05:45:58.241Z,98893.77
2023-03-29T05:48:26.140Z,98899.30
2023-03-29T05:50:55.320Z,98893.23
2023-03-29T05:53:24.846Z,98883.70
2023-03-29T05:55:51.831Z,98887.79
2023-03-29T05:58:20.428Z,98885.42
2023-03-29T06:00:52.558Z,98886.80
2023-03-29T06:03:23.904Z,98889.30
2023-03-29T06:05:58.855Z,98887.86
2023-03-29T06:08:27.704Z,98892.17
2023-03-29T06:11:04.552Z,98890.82
2023-03-29T06:13:34.125Z,98892.48
2023-03-29T06:16:01.444Z,98890.95
2023-03-29T06:18:28.559Z,98891.76
2023-03-29T06:20:55.325Z,98891.63
2023-03-29T06:23:23.529Z,98894.91
2023-03-29T06:25:53.610Z,98895.33
2023-03-29T06:28:20.217Z,98888.38
2023-03-29T06:30:48.178Z,98892.70
2023-03-29T06:33:17.028Z,98898.91
2023-03-29T06:35:46.344Z,98904.14
2023-03-29T06:38:13.924Z,98903.59
2023-03-29T06:40:40.863Z,98904.83
2023-03-29T06:43:07.621Z,98904.13
2023-03-29T06:45:37.026Z,98906.38
2023-03-29T06:48:05.127Z,98909.98
2023-03-29T06:50:32.438Z,98910.04
2023-03-29T06:52:59.217Z,98909.88
2023-03-29T06:55:27.276Z,98910.77
2023-03-29T06:57:54.884Z,98914.75
2023-03-29T07:00:28.329Z,98916.05
2023-03-29T07:02:58.095Z,98912.16
2023-03-29T07:05:28.667Z,98914.26
2023-03-29T07:07:57.605Z,98914.59
2023-03-29T07:10:32.857Z,98920.41
2023-03-29T07:13:00.972Z,98920.30
2023-03-29T07:15:29.566Z,98917.66
2023-03-29T07:17:57.544Z,98914.63
2023-03-29T07:20:25.686Z,98916.86
2023-03-29T07:22:52.979Z,98918.60
2023-03-29T07:25:22.490Z,98919.94
2023-03-29T07:27:50.287Z,98922.05
2023-03-29T07:30:21.212Z,98921.04
2023-03-29T07:32:48.158Z,98918.55
2023-03-29T07:35:15.936Z,98914.25
2023-03-29T07:37:44.407Z,98914.95
2023-03-29T07:40:16.367Z,98911.22
2023-03-29T07:42:47.804Z,98910.54
2023-03-29T07:45:17.062Z,98910.14
2023-03-29T07:47:44.904Z,98911.83
2023-03-29T07:50:12.347Z,98911.78
2023-03-29T07:52:39.765Z,98911.32
2023-03-29T07:55:11.125Z,98913.08
2023-03-29T07:57:37.851Z,98914.52
2023-03-29T08:00:11.684Z,98910.48
2023-03-29T08:02:38.617Z,98909.08
2023-03-29T08:05:06.922Z,98906.11
2023-03-29T08:07:33.749Z,98907.61
2023-03-29T08:10:00.514Z,98907.64
2023-03-29T08:12:27.361Z,98905.38
2023-03-29T08:14:54.113Z,98901.04
2023-03-29T08:17:20.925Z,98898.67
2023-03-29T08:19:51.434Z,98900.09
2023-03-29T08:22:19.498Z,98897.66
2023-03-29T08:27:27.249Z,98891.23
2023-03-29T08:29:53.995Z,98892.58
2023-03-29T08:32:21.007Z,98890.92
2023-03-29T08:34:47.776Z,98891.98
2023-03-29T08:37:15.164Z,98892.48
2023-03-29T08:39:42.228Z,98895.36
2023-03-29T08:42:22.832Z,98895.32
2023-03-29T08:45:01.672Z,98892.63
2023-03-29T08:47:35.081Z,98890.47
2023-03-29T08:50:02.543Z,98895.90
2023-03-29T08:52:31.163Z,98888.38
2023-03-29T08:55:00.927Z,98887.71
2023-03-29T08:57:43.555Z,98881.00
2023-03-29T09:00:20.575Z,98885.51
2023-03-29T09:02:49.851Z,98881.22
2023-03-29T09:05:37.245Z,98881.63
2023-03-29T09:08:04.133Z,98878.88
2023-03-29T09:10:42.829Z,98873.99
2023-03-29T09:13:23.422Z,98871.18
2023-03-29T09:15:50.212Z,98868.48
2023-03-29T09:18:41.319Z,98868.20
2023-03-29T09:21:14.692Z,98869.34
2023-03-29T09:23:44.832Z,98863.53
2023-03-29T09:26:17.671Z,98863.35
2023-03-29T09:29:09.008Z,98864.98
2023-03-29T09:31:42.351Z,98863.41
2023-03-29T09:34:15.657Z,98857.02
2023-03-29T09:36:42.797Z,98860.27
2023-03-29T09:39:13.584Z,98860.79
2023-03-29T09:41:51.600Z,98856.94
2023-03-29T09:44:31.124Z,98849.56
2023-03-29T09:47:21.432Z,98842.91
2023-03-29T09:49:52.577Z,98850.79
2023-03-29T09:52:21.148Z,98846.48
2023-03-29T09:54:48.332Z,98850.03
2023-03-29T09:57:20.052Z,98849.25
2023-03-29T09:59:50.284Z,98843.06
2023-03-29T10:02:19.616Z,98845.10
2023-03-29T10:04:55.348Z,98837.69
2023-03-29T10:07:22.979Z,98838.52
2023-03-29T10:09:52.440Z,98833.40
2023-03-29T10:12:21.760Z,98831.52
2023-03-29T10:14:53.636Z,98831.30
2023-03-29T10:17:26.869Z,98830.31
2023-03-29T10:20:04.543Z,98825.42
2023-03-29T10:22:38.246Z,98826.24
2023-03-29T10:25:12.895Z,98828.23
2023-03-29T10:27:43.430Z,98821.67
2023-03-29T10:30:22.353Z,98818.35
2023-03-29T10:33:00.221Z,98816.06
2023-03-29T10:35:34.744Z,98816.12
2023-03-29T10:38:07.850Z,98815.64
2023-03-29T10:40:35.879Z,98814.33
2023-03-29T10:43:26.594Z,98810.29
2023-03-29T10:45:55.943Z,98809.83
2023-03-29T10:48:30.400Z,98800.91
2023-03-29T10:51:02.281Z,98801.98
2023-03-29T10:53:32.705Z,98800.33
2023-03-29T10:56:07.716Z,98799.45
2023-03-29T10:58:42.913Z,98798.48
2023-03-29T11:01:21.218Z,98795.46
2023-03-29T11:04:02.337Z,98793.98
2023-03-29T11:06:41.358Z,98791.55
2023-03-29T11:09:27.700Z,98791.56
2023-03-29T11:12:15.636Z,98786.64
2023-03-29T11:15:06.889Z,98777.81
2023-03-29T11:17:51.271Z,98775.23
2023-03-29T11:20:39.976Z,98774.56
2023-03-29T11:23:21.141Z,98769.85
2023-03-29T11:26:02.539Z,98771.09
2023-03-29T11:28:49.530Z,98764.36
2023-03-29T11:31:42.758Z,98763.06
2023-03-29T11:34:22.361Z,98756.70
2023-03-29T11:36:54.096Z,98759.18
2023-03-29T11:39:28.919Z,98759.40
2023-03-29T11:42:05.290Z,98749.64
2023-03-29T11:44:33.074Z,98748.23
2023-03-29T11:47:06.316Z,98747.77
2023-03-29T11:49:46.815Z,98743.67
2023-03-29T11:52:31.182Z,98740.92
2023-03-29T11:55:04.072Z,98738.89
2023-03-29T11:57:41.061Z,98735.30
2023-03-29T12:00:32.349Z,98732.42
2023-03-29T12:03:32.848Z,98736.97
2023-03-29T12:06:13.063Z,98729.77
2023-03-29T12:09:08.181Z,98723.66
2023-03-29T12:12:32.280Z,98724.50
2023-03-29T12:15:11.361Z,98723.67
2023-03-29T12:18:33.073Z,98723.23
2023-03-29T12:22:00.964Z,98721.79
2023-03-29T12:25:32.229Z,98717.69
2023-03-29T12:28:11.114Z,98715.42
2023-03-29T12:31:18.898Z,98709.06
2023-03-29T12:34:05.599Z,98702.92
2023-03-29T12:37:18.425Z,98705.34
2023-03-29T12:40:23.910Z,98700.84
2023-03-29T12:43:34.732Z,98692.50
2023-03-29T12:46:43.151Z,98691.87
2023-03-29T12:49:40.212Z,98693.05
2023-03-29T12:52:38.923Z,98692.70
2023-03-29T12:56:02.323Z,98691.02
2023-03-29T13:10:13.112Z,98678.46
2023-03-29T13:13:44.989Z,98665.71
2023-03-29T13:17:37.650Z,98666.14
2023-03-29T13:20:51.326Z,98674.10
2023-03-29T13:24:12.415Z,98664.63
2023-03-29T13:27:37.554Z,98663.04
2023-03-29T13:45:48.017Z,98643.35
2023-03-29T13:48:25.606Z,98639.05
2023-03-29T13:50:58.807Z,98639.71
2023-03-29T13:53:41.325Z,98635.17
2023-03-29T13:56:16.024Z,98632.23
2023-03-29T13:58:51.969Z,98626.22
2023-03-29T14:01:36.673Z,98624.65
2023-03-29T14:04:07.498Z,98620.83
2023-03-29T14:06:37.822Z,98615.91
2023-03-29T14:09:09.261Z,98618.23
2023-03-29T14:11:36.800Z,98620.44
2023-03-29T14:14:05.474Z,98612.39
2023-03-29T14:16:37.041Z,98606.68
2023-03-29T14:19:27.916Z,98614.27
2023-03-29T14:21:54.770Z,98614.86
2023-03-29T14:24:26.073Z,98610.21
2023-03-29T14:26:54.813Z,98605.45
2023-03-29T14:29:24.210Z,98607.79
2023-03-29T14:31:52.377Z,98603.90
2023-03-29T14:34:19.407Z,98604.81
2023-03-29T14:36:49.487Z,98602.02
2023-03-29T14:39:18.932Z,98602.73
2023-03-29T14:41:59.370Z,98603.11
2023-03-29T14:44:31.073Z,98602.23
2023-03-29T14:46:58.599Z,98605.91
2023-03-29T14:49:26.347Z,98604.59
2023-03-29T14:51:55.625Z,98607.38
2023-03-29T14:54:27.103Z,98608.52
2023-03-29T14:56:54.592Z,98609.14
2023-03-29T14:59:24.378Z,98605.65
2023-03-29T15:01:51.385Z,98604.02
2023-03-29T15:04:18.258Z,98599.34
2023-03-29T15:06:47.111Z,98595.05
2023-03-29T15:09:30.276Z,98594.05
2023-03-29T15:11:59.736Z,98589.77
2023-03-29T15:14:33.938Z,98592.20
2023-03-29T15:17:04.639Z,98592.27
2023-03-29T15:19:32.217Z,98593.46
2023-03-29T15:22:05.690Z,98594.17
2023-03-29T15:24:34.226Z,98593.67
2023-03-29T15:27:03.080Z,98594.88
2023-03-29T15:29:42.612Z,98591.77
2023-03-29T15:32:20.130Z,98588.38
2023-03-29T15:34:47.607Z,98585.89
2023-03-29T15:37:14.593Z,98582.25
2023-03-29T15:39:44.985Z,98583.37
2023-03-29T15:42:11.910Z,98578.48
2023-03-29T15:44:39.239Z,98574.69
2023-03-29T15:47:13.613Z,98571.85
2023-03-29T15:49:44.187Z,98572.35
2023-03-29T15:52:11.440Z,98570.37
2023-03-29T15:54:38.502Z,98564.37
2023-03-29T15:57:13.597Z,98562.41
2023-03-29T15:59:41.135Z,98559.66
2023-03-29T16:02:13.172Z,98561.89
2023-03-29T16:04:39.932Z,98563.79
2023-03-29T16:07:12.214Z,98564.66
2023-03-29T16:09:39.439Z,98565.83
2023-03-29T16:12:07.397Z,98567.57
2023-03-29T16:14:34.124Z,98564.99
2023-03-29T16:17:03.350Z,98566.08
2023-03-29T16:19:32.039Z,98561.30
2023-03-29T16:22:01.236Z,98557.98
2023-03-29T16:24:31.984Z,98555.77
2023-03-29T16:26:59.754Z,98552.70
2023-03-29T16:29:26.548Z,98552.91
2023-03-29T16:31:54.256Z,98556.05
2023-03-29T16:34:22.947Z,98555.55
2023-03-29T16:36:50.915Z,98554.95
2023-03-29T16:39:18.704Z,98553.09
2023-03-29T16:41:48.497Z,98554.13
2023-03-29T16:44:23.620Z,98549.35
2023-03-29T16:46:54.132Z,98544.06
2023-03-29T16:49:21.639Z,98550.20
2023-03-29T16:51:48.824Z,98546.65
2023-03-29T16:54:17.418Z,98544.25
2023-03-29T16:56:44.279Z,98543.66
2023-03-29T16:59:12.211Z,98540.14
2023-03-29T17:01:41.011Z,98536.84
2023-03-29T17:04:09.184Z,98537.18
2023-03-29T17:06:36.398Z,98539.66
2023-03-29T17:09:05.307Z,98543.15
2023-03-29T17:11:33.104Z,98545.73
2023-03-29T17:14:00.327Z,98544.65
2023-03-29T17:16:29.219Z,98543.80
2023-03-29T17:19:00.673Z,98539.66
2023-03-29T17:21:29.588Z,98538.35
2023-03-29T17:23:56.812Z,98546.00
2023-03-29T17:26:23.777Z,98548.40
2023-03-29T17:28:50.680Z,98554.48
2023-03-29T17:31:19.606Z,98555.08
2023-03-29T17:33:47.702Z,98556.01
2023-03-29T17:36:15.000Z,98558.29
2023-03-29T17:38:43.296Z,98562.89
2023-03-29T17:41:11.419Z,98564.58
2023-03-29T17:43:38.265Z,98564.54
2023-03-29T17:46:06.051Z,98564.83
2023-03-29T17:48:33.065Z,98567.92
2023-03-29T17:50:59.900Z,98568.13
2023-03-29T17:53:27.460Z,98566.36
2023-03-29T17:55:54.301Z,98562.87
2023-03-29T17:58:21.453Z,98566.62
2023-03-29T18:00:48.322Z,98564.83
2023-03-29T18:03:15.522Z,98564.41
2023-03-29T18:05:42.292Z,98569.46
2023-03-29T18:08:09.284Z,98569.63
2023-03-29T18:10:36.956Z,98569.02
2023-03-29T18:13:05.409Z,98569.64
2023-03-29T18:15:33.043Z,98574.08
2023-03-29T18:18:00.604Z,98576.71
2023-03-29T18:20:27.552Z,98579.38
2023-03-29T18:22:54.352Z,98581.36
2023-03-29T18:25:22.039Z,98582.43
2023-03-29T18:27:50.355Z,98583.98
2023-03-29T18:30:17.333Z,98585.20
2023-03-29T18:32:44.376Z,98591.05
2023-03-29T18:35:11.930Z,98589.30
2023-03-29T18:37:40.884Z,98584.90
2023-03-29T18:40:09.345Z,98582.67
2023-03-29T18:42:36.462Z,98582.07
2023-03-29T18:45:05.012Z,98586.83
2023-03-29T18:47:31.981Z,98586.45
2023-03-29T18:49:58.772Z,98585.16
2023-03-29T18:52:25.688Z,98587.54
2023-03-29T18:54:52.410Z,98589.67
2023-03-29T18:57:19.426Z,98590.35
2023-03-29T18:59:46.306Z,98590.23
2023-03-29T19:02:13.340Z,98588.66
2023-03-29T19:04:40.481Z,98586.48
2023-03-29T19:07:09.113Z,98585.14
2023-03-29T19:09:36.253Z,98585.70
2023-03-29T19:12:04.173Z,98582.41
2023-03-29T19:14:31.422Z,98578.31
2023-03-29T19:16:58.431Z,98576.83
2023-03-29T19:19:26.666Z,98576.75
2023-03-29T19:21:53.881Z,98574.23
2023-03-29T19:24:22.314Z,98572.63
2023-03-29T19:26:51.578Z,98573.66
2023-03-29T19:29:18.617Z,98576.95
2023-03-29T19:31:45.786Z,98571.91
2023-03-29T19:34:12.734Z,98572.39
2023-03-29T19:36:39.882Z,98569.69
2023-03-29T19:39:07.448Z,98567.89
2023-03-29T19:41:34.721Z,98574.30
2023-03-29T19:44:01.759Z,98576.90
2023-03-29T19:46:29.104Z,98573.73
2023-03-29T19:48:56.496Z,98568.59
2023-03-29T19:51:23.723Z,98563.61
2023-03-29T19:53:50.620Z,98561.23
2023-03-29T19:56:18.146Z,98560.23
2023-03-29T19:58:45.070Z,98562.25
2023-03-29T20:01:12.994Z,98566.39
2023-03-29T20:03:42.964Z,98566.45
2023-03-29T20:06:10.889Z,98560.69
2023-03-29T20:08:39.492Z,98561.73
2023-03-29T20:11:10.536Z,98564.82
2023-03-29T20:13:39.400Z,98564.86
2023-03-29T20:16:11.885Z,98571.27
2023-03-29T20:18:39.312Z,98572.85
2023-03-29T20:21:07.784Z,98574.75
2023-03-29T20:23:35.796Z,98568.50
2023-03-29T20:26:03.516Z,98567.05
2023-03-29T20:28:30.432Z,98576.15
2023-03-29T20:30:57.654Z,98576.05
2023-03-29T20:33:24.639Z,98574.93
2023-03-29T20:35:54.342Z,98577.31
2023-03-29T20:38:22.281Z,98571.39
2023-03-29T20:40:50.061Z,98569.89
2023-03-29T20:43:18.604Z,98566.29
2023-03-29T20:45:53.884Z,98561.14
2023-03-29T20:48:30.395Z,98559.88
2023-03-29T20:50:57.962Z,98554.78
2023-03-29T20:53:25.426Z,98552.40
2023-03-29T20:55:52.396Z,98552.55
2023-03-29T20:58:19.269Z,98555.39
2023-03-29T21:00:48.502Z,98552.05
2023-03-29T21:03:15.713Z,98550.15
2023-03-29T21:05:43.615Z,98547.71
2023-03-29T21:08:11.008Z,98543.33
2023-03-29T21:10:38.066Z,98541.32
2023-03-29T21:13:05.100Z,98540.79
2023-03-29T21:15:32.279Z,98538.84
2023-03-29T21:17:59.403Z,98536.16
2023-03-29T21:20:27.831Z,98534.12
2023-03-29T21:22:54.648Z,98526.83
2023-03-29T21:25:21.967Z,98518.33
2023-03-29T21:27:49.220Z,98519.20
2023-03-29T21:30:16.602Z,98519.73
2023-03-29T21:32:43.594Z,98512.12
2023-03-29T21:35:11.282Z,98511.33
2023-03-29T21:37:38.504Z,98509.52
2023-03-29T21:40:07.275Z,98509.36
2023-03-29T21:42:35.084Z,98505.34
2023-03-29T21:45:01.897Z,98505.54
2023-03-29T21:47:28.970Z,98511.68
2023-03-29T21:49:56.038Z,98516.02
2023-03-29T21:52:23.269Z,98517.88
2023-03-29T21:54:50.316Z,98519.02
2023-03-29T21:57:17.370Z,98518.76
2023-03-29T21:59:44.400Z,98523.08
2023-03-29T22:02:11.422Z,98519.95
2023-03-29T22:04:38.499Z,98515.50
2023-03-29T22:07:06.924Z,98518.56
2023-03-29T22:09:35.458Z,98513.25
2023-03-29T22:12:03.721Z,98510.91
2023-03-29T22:14:35.409Z,98514.30
2023-03-29T22:17:07.734Z,98512.34
2023-03-29T22:19:39.379Z,98510.17
2023-03-29T22:22:14.016Z,98510.27
2023-03-29T22:24:42.435Z,98508.71
2023-03-29T22:27:09.735Z,98506.16
2023-03-29T22:29:36.476Z,98505.09
2023-03-29T22:32:03.900Z,98507.94
2023-03-29T22:34:30.882Z,98506.66
2023-03-29T22:36:57.710Z,98504.80
2023-03-29T22:39:24.417Z,98502.14
2023-03-29T22:41:51.469Z,98502.72
2023-03-29T22:44:18.223Z,98498.39
2023-03-29T22:46:45.100Z,98497.89
2023-03-29T22:49:12.405Z,98497.52
2023-03-29T22:51:39.149Z,98501.39
2023-03-29T22:54:06.033Z,98499.18
2023-03-29T22:56:32.876Z,98493.90
2023-03-29T22:58:59.613Z,98494.27
2023-03-29T23:01:26.436Z,98486.65
2023-03-29T23:03:53.478Z,98486.86
2023-03-29T23:06:20.522Z,98489.61
2023-03-29T23:08:47.309Z,98484.15
2023-03-29T23:11:14.078Z,98485.69
2023-03-29T23:13:41.261Z,98481.61
2023-03-29T23:16:08.128Z,98481.36
2023-03-29T23:18:37.911Z,98478.30
2023-03-29T23:21:06.143Z,98472.19
2023-03-29T23:23:33.714Z,98468.88
2023-03-29T23:26:02.560Z,98469.20
2023-03-29T23:28:31.762Z,98468.27
2023-03-29T23:31:03.031Z,98470.61
2023-03-29T23:33:36.620Z,98467.25
2023-03-29T23:36:05.609Z,98463.13
2023-03-29T23:38:34.411Z,98461.55
2023-03-29T23:41:03.867Z,98458.61
2023-03-29T23:43:33.906Z,98453.48
2023-03-29T23:46:02.000Z,98450.63
2023-03-29T23:48:29.153Z,98446.81
2023-03-29T23:50:59.418Z,98444.54
2023-03-29T23:53:29.131Z,98443.27
2023-03-29T23:56:01.502Z,98435.44
2023-03-29T23:58:34.521Z,98434.64
